Time,TemperatureF,DewpointF,PressureIn,WindDirection,WindDirectionDegrees,WindSpeedMPH,WindSpeedGustMPH,Humidity,HourlyPrecipIn,Conditions,Clouds,dailyrainin,SoftwareType,DateUTC
2013-04-09 00:07:00,54.4,44.0,30.01,WSW,242,8.0,-999.0,69,-99.99,,,0.00,weatherlink.com 1.10,2013-04-09 04:07:00,
2013-04-09 00:22:00,54.4,44.0,30.02,West,267,10.0,-999.0,69,-99.99,,,0.00,weatherlink.com 1.10,2013-04-09 04:22:00,
2013-04-09 00:37:00,54.5,44.0,30.02,West,259,11.0,-999.0,69,-99.99,,,0.00,weatherlink.com 1.10,2013-04-09 04:37:00,
2013-04-09 00:52:00,54.5,44.0,30.02,SW,232,15.0,-999.0,69,-99.99,,,0.00,weatherlink.com 1.10,2013-04-09 04:52:00,
2013-04-09 01:07:00,53.8,44.0,30.02,WSW,256,6.0,-999.0,70,-99.99,,,0.00,weatherlink.com 1.10,2013-04-09 05:07:00,
2013-04-09 01:22:00,53.5,44.0,30.01,WSW,238,14.0,-999.0,71,-99.99,,,0.00,weatherlink.com 1.10,2013-04-09 05:22:00,
2013-04-09 01:37:00,53.2,44.0,30.02,SW,215,15.0,-999.0,72,-99.99,,,0.00,weatherlink.com 1.10,2013-04-09 05:37:00,
2013-04-09 01:53:00,53.0,44.0,30.02,WSW,256,12.0,-999.0,72,-99.99,,,0.00,weatherlink.com 1.10,2013-04-09 05:53:00,
2013-04-09 02:08:00,52.5,44.0,30.01,SW,219,9.0,-999.0,73,-99.99,,,0.00,weatherlink.com 1.10,2013-04-09 06:08:00,
2013-04-09 02:23:00,52.5,44.0,30.01,SW,234,11.0,-999.0,74,-99.99,,,0.00,weatherlink.com 1.10,2013-04-09 06:23:00,
2013-04-09 02:38:00,52.4,44.0,30.00,WSW,238,12.0,-999.0,74,-99.99,,,0.00,weatherlink.com 1.10,2013-04-09 06:38:00,
2013-04-09 02:53:00,52.0,44.0,30.00,WNW,283,14.0,-999.0,75,-99.99,,,0.00,weatherlink.com 1.10,2013-04-09 06:53:00,
2013-04-09 03:08:00,51.8,44.0,30.00,WSW,237,15.0,-999.0,76,-99.99,,,0.00,weatherlink.com 1.10,2013-04-09 07:08:00,
2013-04-09 03:23:00,51.7,45.0,29.99,SW,229,12.0,-999.0,77,-99.99,,,0.00,weatherlink.com 1.10,2013-04-09 07:23:00,
2013-04-09 03:38:00,51.5,45.0,29.99,SW,236,15.0,-999.0,78,-99.99,,,0.00,weatherlink.com 1.10,2013-04-09 07:38:00,
2013-04-09 03:53:00,51.5,46.0,29.98,WSW,237,19.0,-999.0,80,-99.99,,,0.00,weatherlink.com 1.10,2013-04-09 07:53:00,
2013-04-09 04:08:00,51.6,46.0,29.99,SW,233,12.0,-999.0,81,-99.99,,,0.00,weatherlink.com 1.10,2013-04-09 08:08:00,
2013-04-09 04:23:00,51.5,46.0,29.99,SW,235,12.0,-999.0,82,-99.99,,,0.00,weatherlink.com 1.10,2013-04-09 08:23:00,
2013-04-09 04:38:00,51.5,46.0,30.00,WSW,252,16.0,-999.0,82,-99.99,,,0.00,weatherlink.com 1.10,2013-04-09 08:38:00,
2013-04-09 04:53:00,51.8,47.0,30.00,SW,233,12.0,-999.0,82,-99.99,,,0.00,weatherlink.com 1.10,2013-04-09 08:53:00,
2013-04-09 05:08:00,52.2,47.0,30.00,WSW,239,12.0,-999.0,82,-99.99,,,0.00,weatherlink.com 1.10,2013-04-09 09:08:00,
2013-04-09 05:23:00,52.1,47.0,30.01,SW,230,15.0,-999.0,83,-99.99,,,0.00,weatherlink.com 1.10,2013-04-09 09:23:00,
2013-04-09 05:38:00,51.7,47.0,30.02,SW,227,18.0,-999.0,84,-99.99,,,0.00,weatherlink.com 1.10,2013-04-09 09:38:00,
2013-04-09 05:53:00,51.5,47.0,30.02,WSW,243,26.0,-999.0,84,-99.99,,,0.00,weatherlink.com 1.10,2013-04-09 09:53:00,
2013-04-09 06:08:00,51.5,47.0,30.02,West,281,10.0,-999.0,84,-99.99,,,0.00,weatherlink.com 1.10,2013-04-09 10:08:00,
2013-04-09 06:23:00,51.2,47.0,30.03,West,279,8.0,-999.0,85,-99.99,,,0.00,weatherlink.com 1.10,2013-04-09 10:23:00,
2013-04-09 06:38:00,51.0,47.0,30.04,SW,224,12.0,-999.0,86,-99.99,,,0.00,weatherlink.com 1.10,2013-04-09 10:38:00,
2013-04-09 07:08:00,50.7,47.0,30.05,SW,219,6.0,-999.0,87,-99.99,,,0.00,weatherlink.com 1.10,2013-04-09 11:08:00,
2013-04-09 07:23:00,50.8,47.0,30.06,WSW,257,16.0,-999.0,87,-99.99,,,0.00,weatherlink.com 1.10,2013-04-09 11:23:00,
2013-04-09 07:38:00,51.4,47.0,30.06,WSW,246,7.0,-999.0,86,-99.99,,,0.00,weatherlink.com 1.10,2013-04-09 11:38:00,
2013-04-09 07:53:00,51.5,48.0,30.07,West,267,12.0,-999.0,86,-99.99,,,0.00,weatherlink.com 1.10,2013-04-09 11:53:00,
2013-04-09 08:08:00,51.8,48.0,30.08,WNW,290,10.0,-999.0,85,-99.99,,,0.00,weatherlink.com 1.10,2013-04-09 12:08:00,
2013-04-09 08:23:00,52.2,48.0,30.08,WSW,239,1.0,-999.0,84,-99.99,,,0.00,weatherlink.com 1.10,2013-04-09 12:23:00,
2013-04-09 08:38:00,52.8,48.0,30.08,NNW,327,6.0,-999.0,84,-99.99,,,0.00,weatherlink.com 1.10,2013-04-09 12:38:00,
2013-04-09 08:53:00,53.4,48.0,30.08,WSW,239,7.0,-999.0,82,-99.99,,,0.00,weatherlink.com 1.10,2013-04-09 12:53:00,
2013-04-09 09:08:00,53.7,48.0,30.08,WSW,246,5.0,-999.0,81,-99.99,,,0.00,weatherlink.com 1.10,2013-04-09 13:08:00,
2013-04-09 09:23:00,54.7,49.0,30.07,WSW,247,14.0,-999.0,80,-99.99,,,0.00,weatherlink.com 1.10,2013-04-09 13:23:00,
2013-04-09 09:53:00,56.4,49.0,30.07,West,259,13.0,-999.0,76,-99.99,,,0.00,weatherlink.com 1.10,2013-04-09 13:53:00,
2013-04-09 11:09:00,60.4,50.0,30.08,SW,228,9.0,-999.0,68,-99.99,,,0.00,weatherlink.com 1.10,2013-04-09 15:09:00,
2013-04-09 11:39:00,60.7,50.0,30.10,SW,228,8.0,-999.0,68,-99.99,,,0.00,weatherlink.com 1.10,2013-04-09 15:39:00,
2013-04-09 11:54:00,60.2,50.0,30.09,SW,232,6.0,-999.0,69,-99.99,,,0.00,weatherlink.com 1.10,2013-04-09 15:54:00,
2013-04-09 12:09:00,63.3,50.0,30.09,WNW,295,5.0,-999.0,63,-99.99,,,0.00,weatherlink.com 1.10,2013-04-09 16:09:00,
2013-04-09 12:39:00,63.8,50.0,30.07,SW,225,5.0,-999.0,61,-99.99,,,0.00,weatherlink.com 1.10,2013-04-09 16:39:00,
2013-04-09 12:54:00,64.4,50.0,30.07,SW,227,12.0,-999.0,60,-99.99,,,0.00,weatherlink.com 1.10,2013-04-09 16:54:00,
2013-04-09 13:09:00,64.9,50.0,30.07,SW,223,10.0,-999.0,58,-99.99,,,0.00,weatherlink.com 1.10,2013-04-09 17:09:00,
2013-04-09 13:24:00,65.4,50.0,30.06,WSW,249,5.0,-999.0,58,-99.99,,,0.00,weatherlink.com 1.10,2013-04-09 17:24:00,
2013-04-09 13:39:00,66.5,50.0,30.05,WSW,241,8.0,-999.0,55,-99.99,,,0.00,weatherlink.com 1.10,2013-04-09 17:39:00,
2013-04-09 14:09:00,67.9,50.0,30.05,SW,221,9.0,-999.0,53,-99.99,,,0.00,weatherlink.com 1.10,2013-04-09 18:09:00,
2013-04-09 14:24:00,68.6,50.0,30.04,SSW,194,4.0,-999.0,51,-99.99,,,0.00,weatherlink.com 1.10,2013-04-09 18:24:00,
2013-04-09 14:39:00,69.0,50.0,30.04,South,183,9.0,-999.0,51,-99.99,,,0.00,weatherlink.com 1.10,2013-04-09 18:39:00,
2013-04-09 14:54:00,68.9,49.0,30.02,WSW,251,8.0,-999.0,50,-99.99,,,0.00,weatherlink.com 1.10,2013-04-09 18:54:00,
2013-04-09 15:09:00,69.8,50.0,30.02,SW,231,9.0,-999.0,50,-99.99,,,0.00,weatherlink.com 1.10,2013-04-09 19:09:00,
2013-04-09 15:24:00,69.6,50.0,30.02,WSW,256,8.0,-999.0,50,-99.99,,,0.00,weatherlink.com 1.10,2013-04-09 19:24:00,
2013-04-09 15:39:00,70.3,51.0,30.01,SSW,202,13.0,-999.0,50,-99.99,,,0.00,weatherlink.com 1.10,2013-04-09 19:39:00,
2013-04-09 15:54:00,70.4,50.0,30.00,South,186,13.0,-999.0,49,-99.99,,,0.00,weatherlink.com 1.10,2013-04-09 19:54:00,
2013-04-09 16:09:00,70.2,50.0,30.00,SE,144,5.0,-999.0,49,-99.99,,,0.00,weatherlink.com 1.10,2013-04-09 20:09:00,
2013-04-09 16:24:00,69.1,51.0,30.00,SW,215,8.0,-999.0,52,-99.99,,,0.00,weatherlink.com 1.10,2013-04-09 20:24:00,
2013-04-09 16:39:00,68.5,50.0,30.00,SSW,195,5.0,-999.0,52,-99.99,,,0.00,weatherlink.com 1.10,2013-04-09 20:39:00,
2013-04-09 16:54:00,68.3,50.0,29.99,SSW,211,10.0,-999.0,53,-99.99,,,0.00,weatherlink.com 1.10,2013-04-09 20:54:00,
2013-04-09 17:09:00,68.9,50.0,29.99,South,190,8.0,-999.0,51,-99.99,,,0.00,weatherlink.com 1.10,2013-04-09 21:09:00,
2013-04-09 17:24:00,68.7,50.0,29.99,SW,215,11.0,-999.0,51,-99.99,,,0.00,weatherlink.com 1.10,2013-04-09 21:24:00,
2013-04-09 17:54:00,68.1,49.0,30.00,WSW,239,6.0,-999.0,51,-99.99,,,0.00,weatherlink.com 1.10,2013-04-09 21:54:00,
2013-04-09 18:09:00,67.9,48.0,30.00,WSW,246,15.0,-999.0,50,-99.99,,,0.00,weatherlink.com 1.10,2013-04-09 22:09:00,
2013-04-09 18:24:00,67.7,48.0,29.99,SSW,211,9.0,-999.0,49,-99.99,,,0.00,weatherlink.com 1.10,2013-04-09 22:24:00,
2013-04-09 18:39:00,66.7,48.0,29.99,SSW,206,8.0,-999.0,51,-99.99,,,0.00,weatherlink.com 1.10,2013-04-09 22:39:00,
2013-04-09 18:54:00,64.9,48.0,29.98,SSW,212,7.0,-999.0,55,-99.99,,,0.00,weatherlink.com 1.10,2013-04-09 22:54:00,
2013-04-09 19:09:00,63.5,48.0,29.98,SW,214,5.0,-999.0,57,-99.99,,,0.00,weatherlink.com 1.10,2013-04-09 23:09:00,
2013-04-09 19:24:00,63.1,48.0,29.98,SSW,211,5.0,-999.0,58,-99.99,,,0.00,weatherlink.com 1.10,2013-04-09 23:24:00,
2013-04-09 19:39:00,62.8,48.0,29.98,SSW,202,8.0,-999.0,59,-99.99,,,0.00,weatherlink.com 1.10,2013-04-09 23:39:00,
2013-04-09 19:54:00,62.1,48.0,29.98,SSW,211,8.0,-999.0,60,-99.99,,,0.00,weatherlink.com 1.10,2013-04-09 23:54:00,
2013-04-09 20:09:00,61.8,48.0,29.99,WSW,248,6.0,-999.0,60,-99.99,,,0.00,weatherlink.com 1.10,2013-04-10 00:09:00,
2013-04-09 20:24:00,61.5,47.0,29.99,SW,234,6.0,-999.0,60,-99.99,,,0.00,weatherlink.com 1.10,2013-04-10 00:24:00,
2013-04-09 20:39:00,61.6,47.0,30.00,WSW,252,7.0,-999.0,60,-99.99,,,0.00,weatherlink.com 1.10,2013-04-10 00:39:00,
2013-04-09 20:54:00,62.0,46.0,30.00,WSW,238,10.0,-999.0,56,-99.99,,,0.00,weatherlink.com 1.10,2013-04-10 00:54:00,
2013-04-09 21:09:00,61.8,45.0,30.00,WSW,246,8.0,-999.0,54,-99.99,,,0.00,weatherlink.com 1.10,2013-04-10 01:09:00,
2013-04-09 21:24:00,61.3,44.0,30.00,SW,230,11.0,-999.0,54,-99.99,,,0.00,weatherlink.com 1.10,2013-04-10 01:24:00,
2013-04-09 21:39:00,61.1,44.0,30.00,WSW,244,14.0,-999.0,54,-99.99,,,0.00,weatherlink.com 1.10,2013-04-10 01:39:00,
2013-04-09 21:54:00,60.8,44.0,30.01,SW,221,9.0,-999.0,54,-99.99,,,0.00,weatherlink.com 1.10,2013-04-10 01:54:00,
2013-04-09 22:09:00,60.7,44.0,30.00,SW,234,7.0,-999.0,54,-99.99,,,0.00,weatherlink.com 1.10,2013-04-10 02:09:00,
2013-04-09 22:24:00,60.4,43.0,30.00,SW,236,8.0,-999.0,54,-99.99,,,0.00,weatherlink.com 1.10,2013-04-10 02:24:00,
2013-04-09 22:39:00,60.2,44.0,29.99,SW,236,14.0,-999.0,55,-99.99,,,0.00,weatherlink.com 1.10,2013-04-10 02:39:00,
2013-04-09 22:54:00,60.2,44.0,29.98,SW,219,11.0,-999.0,55,-99.99,,,0.00,weatherlink.com 1.10,2013-04-10 02:54:00,
2013-04-09 23:09:00,59.8,43.0,29.98,WSW,255,9.0,-999.0,54,-99.99,,,0.00,weatherlink.com 1.10,2013-04-10 03:09:00,
2013-04-09 23:24:00,60.0,42.0,29.98,SW,216,12.0,-999.0,52,-99.99,,,0.00,weatherlink.com 1.10,2013-04-10 03:24:00,
2013-04-09 23:39:00,59.6,42.0,29.97,SW,225,5.0,-999.0,53,-99.99,,,0.00,weatherlink.com 1.10,2013-04-10 03:39:00,
2013-04-09 23:55:00,59.6,42.0,29.97,West,262,9.0,-999.0,53,-99.99,,,0.00,weatherlink.com 1.10,2013-04-10 03:55:00,